Time;durP1;ratioP1;P1;durP2;ratioP2;P2;SDS_P1;SDS_P2;PMS_P1;PMS_P2;Temp;Humidity;BMP_temperature;BMP_pressure;BME280_temperature;BME280_humidity;BME280_pressure;Samples;Min_cycle;Max_cycle;Signal;HPM_P1;HPM_P2
2021/07/16 00:00:58;;;;;;;3.08;2.80;;;;;;;19.78;64.61;98444.34;5022638;28;20037;-63
2021/07/16 00:03:24;;;;;;;3.25;2.95;;;;;;;19.78;64.32;98437.38;5026087;28;20051;-63
2021/07/16 00:05:49;;;;;;;3.47;3.17;;;;;;;19.78;65.18;98433.94;5029626;28;20033;-63
2021/07/16 00:08:15;;;;;;;2.80;2.70;;;;;;;19.76;64.73;98423.66;5025108;28;20033;-63
2021/07/16 00:10:43;;;;;;;3.88;3.33;;;;;;;19.76;64.92;98439.25;5024537;28;20367;-63
2021/07/16 00:13:09;;;;;;;3.58;3.22;;;;;;;19.78;64.93;98434.78;5025160;28;20038;-63
2021/07/16 00:15:34;;;;;;;4.07;3.78;;;;;;;19.81;64.92;98439.81;5023864;28;20030;-63
2021/07/16 00:18:00;;;;;;;3.28;3.08;;;;;;;19.77;65.12;98440.94;5024777;28;20358;-63
2021/07/16 00:20:25;;;;;;;3.10;2.95;;;;;;;19.79;65.14;98448.63;5025599;28;20049;-63
2021/07/16 00:22:50;;;;;;;3.13;2.92;;;;;;;19.79;65.42;98446.88;5024219;28;20037;-63
2021/07/16 00:25:16;;;;;;;3.72;3.42;;;;;;;19.68;65.63;98454.47;5026160;28;20156;-63
2021/07/16 00:27:41;;;;;;;3.25;3.05;;;;;;;19.68;65.76;98456.25;5025949;28;20037;-63
2021/07/16 00:30:09;;;;;;;3.80;3.45;;;;;;;19.71;65.66;98453.44;5030916;28;20367;-63
2021/07/16 00:32:35;;;;;;;3.15;3.03;;;;;;;19.66;65.78;98461.53;5021478;28;20132;-63
2021/07/16 00:35:00;;;;;;;3.33;3.03;;;;;;;19.65;65.75;98465.03;5022454;28;20298;-63
2021/07/16 00:37:26;;;;;;;3.03;2.90;;;;;;;19.71;65.18;98463.84;5025639;28;20047;-63
2021/07/16 00:39:51;;;;;;;3.15;2.90;;;;;;;19.70;65.26;98463.00;5024973;28;20538;-63
2021/07/16 00:42:17;;;;;;;3.83;3.40;;;;;;;19.65;65.52;98462.44;5021677;28;20110;-63
2021/07/16 00:44:42;;;;;;;3.22;2.92;;;;;;;19.60;65.70;98461.91;5026433;28;20033;-63
2021/07/16 00:47:08;;;;;;;3.90;3.22;;;;;;;19.63;65.61;98458.25;5026782;28;20285;-63
2021/07/16 00:49:34;;;;;;;5.20;3.10;;;;;;;19.59;65.54;98457.63;5024817;28;20077;-63
2021/07/16 00:52:00;;;;;;;3.20;2.90;;;;;;;19.57;65.21;98454.25;5025895;28;20032;-63
2021/07/16 00:54:25;;;;;;;2.55;2.45;;;;;;;19.54;65.01;98459.63;5028768;28;20393;-63
2021/07/16 00:56:52;;;;;;;5.15;2.90;;;;;;;19.56;65.35;98452.59;5024433;28;20043;-63
2021/07/16 00:59:17;;;;;;;4.10;3.05;;;;;;;19.61;64.83;98450.53;5026578;28;20024;-63
2021/07/16 01:01:46;;;;;;;2.97;2.78;;;;;;;19.67;64.84;98449.34;5028427;28;20737;-63
2021/07/16 01:04:11;;;;;;;2.72;2.53;;;;;;;19.57;64.79;98444.69;5025045;28;20583;-63
2021/07/16 01:06:37;;;;;;;3.30;3.10;;;;;;;19.59;65.19;98449.81;5024545;28;20116;-63
2021/07/16 01:09:04;;;;;;;3.20;3.00;;;;;;;19.56;65.14;98448.19;5026084;28;20029;-63
2021/07/16 01:11:30;;;;;;;3.50;3.20;;;;;;;19.51;65.15;98441.63;5030475;28;20025;-63
2021/07/16 01:13:55;;;;;;;3.20;3.00;;;;;;;19.54;64.82;98444.03;5028151;28;20037;-63
2021/07/16 01:16:21;;;;;;;3.00;2.80;;;;;;;19.51;64.86;98439.03;5027591;28;20083;-64
2021/07/16 01:18:46;;;;;;;3.60;3.00;;;;;;;19.48;64.63;98436.56;5027162;28;20421;-63
2021/07/16 01:21:13;;;;;;;3.05;2.85;;;;;;;19.41;65.26;98435.22;5029994;28;20340;-63
2021/07/16 01:23:41;;;;;;;4.28;3.60;;;;;;;19.39;64.74;98431.91;5028354;28;20025;-63
2021/07/16 01:26:07;;;;;;;3.45;3.25;;;;;;;19.46;64.72;98436.69;5024422;28;20040;-63
2021/07/16 01:28:37;;;;;;;3.38;2.70;;;;;;;19.48;64.47;98436.56;5029002;28;20121;-63
2021/07/16 01:31:04;;;;;;;2.30;2.20;;;;;;;19.49;64.57;98436.50;5026916;28;20061;-64
2021/07/16 01:33:29;;;;;;;3.03;2.78;;;;;;;19.42;64.38;98434.31;5029392;28;20065;-63
2021/07/16 01:35:55;;;;;;;3.40;3.20;;;;;;;19.41;64.91;98436.06;5029189;28;20112;-64
2021/07/16 01:38:20;;;;;;;2.95;2.75;;;;;;;19.36;65.37;98435.50;5029022;28;20033;-63
2021/07/16 01:40:46;;;;;;;3.00;2.83;;;;;;;19.30;65.44;98443.66;5024777;28;20497;-63
2021/07/16 01:43:12;;;;;;;3.42;3.13;;;;;;;19.24;65.82;98432.75;5028116;28;20026;-63
2021/07/16 01:45:39;;;;;;;3.58;3.33;;;;;;;19.17;66.61;98434.88;5032806;28;20017;-63
2021/07/16 01:48:07;;;;;;;3.95;3.40;;;;;;;19.05;66.89;98432.97;5026572;28;20383;-63
2021/07/16 01:50:35;;;;;;;2.85;2.65;;;;;;;18.99;67.20;98434.16;5027549;28;20072;-62
2021/07/16 01:53:01;;;;;;;3.10;2.90;;;;;;;19.04;66.90;98432.16;5028030;28;20225;-62
2021/07/16 01:55:29;;;;;;;2.65;2.45;;;;;;;18.99;66.31;98428.97;5026470;28;20026;-62
2021/07/16 01:57:57;;;;;;;3.47;2.65;;;;;;;19.04;65.97;98429.53;5030581;28;20057;-63
2021/07/16 02:00:28;;;;;;;3.08;2.88;;;;;;;19.06;65.39;98421.66;5030635;28;20633;-63
2021/07/16 02:02:57;;;;;;;2.80;2.70;;;;;;;19.12;65.02;98422.16;5029413;28;20050;-65
2021/07/16 02:05:23;;;;;;;3.20;2.67;;;;;;;19.11;65.29;98425.66;5035623;28;20358;-63
2021/07/16 02:07:50;;;;;;;3.33;3.13;;;;;;;19.12;65.15;98427.34;5030760;28;20040;-63
2021/07/16 02:10:18;;;;;;;2.83;2.63;;;;;;;19.17;64.90;98427.09;5028618;28;20115;-63
2021/07/16 02:12:43;;;;;;;2.58;2.38;;;;;;;19.11;65.35;98427.41;5027292;28;20025;-62
2021/07/16 02:15:15;;;;;;;3.63;3.33;;;;;;;19.10;65.35;98423.16;5029800;28;20044;-62
2021/07/16 02:17:40;;;;;;;3.22;3.03;;;;;;;19.02;66.49;98426.19;5028751;28;20034;-61
2021/07/16 02:20:21;;;;;;;3.25;3.00;;;;;;;18.99;66.64;98413.38;5028732;28;20349;-62
2021/07/16 02:22:47;;;;;;;3.08;2.88;;;;;;;18.84;67.06;98416.00;5025548;28;20025;-62
2021/07/16 02:25:14;;;;;;;3.97;3.20;;;;;;;18.89;67.28;98425.19;5031599;28;20070;-62
2021/07/16 02:27:40;;;;;;;3.40;2.45;;;;;;;18.84;67.39;98422.00;5034470;28;20434;-62
2021/07/16 02:30:07;;;;;;;3.75;3.00;;;;;;;18.78;67.98;98424.97;5028824;28;20025;-62
2021/07/16 02:32:33;;;;;;;2.95;2.80;;;;;;;18.80;67.76;98428.28;5032606;28;20371;-62
2021/07/16 02:34:58;;;;;;;3.17;2.97;;;;;;;18.79;68.21;98426.66;5036779;28;20044;-62
2021/07/16 02:37:24;;;;;;;3.10;2.90;;;;;;;18.74;68.23;98428.66;5031673;28;20080;-62
2021/07/16 02:39:49;;;;;;;2.85;2.70;;;;;;;18.66;68.59;98430.84;5029857;28;20022;-62
2021/07/16 02:42:14;;;;;;;3.47;3.28;;;;;;;18.68;68.55;98424.63;5029677;28;20033;-62
2021/07/16 02:44:40;;;;;;;2.85;2.65;;;;;;;18.61;68.72;98425.03;5030435;28;20025;-62
2021/07/16 02:47:05;;;;;;;4.60;3.75;;;;;;;18.66;68.29;98426.47;5030731;28;20290;-62
2021/07/16 02:49:31;;;;;;;3.10;2.90;;;;;;;18.68;68.36;98429.81;5032797;28;20057;-62
2021/07/16 02:51:57;;;;;;;2.95;2.75;;;;;;;18.64;68.42;98428.31;5032857;28;20053;-62
2021/07/16 02:54:22;;;;;;;5.13;3.08;;;;;;;18.60;68.23;98419.00;5028353;28;20080;-62
2021/07/16 02:56:47;;;;;;;3.42;3.13;;;;;;;18.61;68.59;98427.66;5030872;28;20044;-62
2021/07/16 02:59:13;;;;;;;3.97;3.50;;;;;;;18.54;68.89;98434.09;5029506;28;20116;-63
2021/07/16 03:02:02;;;;;;;3.45;3.20;;;;;;;18.57;69.05;98429.56;5029251;28;20092;-64
2021/07/16 03:04:27;;;;;;;3.70;3.38;;;;;;;18.42;69.64;98437.31;5031383;28;20041;-64
2021/07/16 03:06:53;;;;;;;3.00;2.80;;;;;;;18.51;69.31;98436.81;5030444;28;20086;-63
2021/07/16 03:09:19;;;;;;;3.53;3.33;;;;;;;18.42;69.76;98437.31;5026355;28;20068;-63
2021/07/16 03:11:45;;;;;;;3.40;3.13;;;;;;;18.39;69.77;98437.47;5027686;28;20033;-63
2021/07/16 03:14:12;;;;;;;3.00;2.80;;;;;;;18.38;69.93;98438.38;5029145;28;20143;-62
2021/07/16 03:16:37;;;;;;;3.30;3.03;;;;;;;18.34;70.08;98439.47;5032036;28;20045;-62
2021/07/16 03:19:04;;;;;;;3.08;2.85;;;;;;;18.31;69.92;98442.25;5031474;28;20354;-62
2021/07/16 03:21:30;;;;;;;4.30;2.95;;;;;;;18.31;70.17;98444.84;5028918;28;20110;-62
2021/07/16 03:23:56;;;;;;;4.10;3.20;;;;;;;18.31;70.21;98450.03;5030961;28;20034;-63
2021/07/16 03:26:21;;;;;;;3.40;3.20;;;;;;;18.33;70.12;98450.81;5028395;28;20030;-63
2021/07/16 03:28:46;;;;;;;4.05;3.28;;;;;;;18.28;70.05;98456.22;5029680;28;20033;-63
2021/07/16 03:31:12;;;;;;;3.70;3.40;;;;;;;18.35;69.84;98461.91;5029436;28;20033;-63
2021/07/16 03:33:37;;;;;;;3.67;3.38;;;;;;;18.41;69.65;98467.66;5029126;28;20040;-63
2021/07/16 03:36:05;;;;;;;3.40;2.90;;;;;;;18.42;69.58;98461.50;5030319;28;20244;-62
2021/07/16 03:38:30;;;;;;;3.13;2.83;;;;;;;18.50;69.36;98479.28;5029275;28;20305;-63
2021/07/16 03:40:58;;;;;;;3.15;2.90;;;;;;;18.55;69.29;98469.50;5027864;28;20400;-63
2021/07/16 03:43:23;;;;;;;3.00;2.80;;;;;;;18.57;68.81;98468.53;5032422;28;20397;-63
2021/07/16 03:45:51;;;;;;;3.78;3.40;;;;;;;18.59;68.81;98473.63;5025685;28;20030;-62
2021/07/16 03:48:17;;;;;;;5.65;2.80;;;;;;;18.65;69.13;98473.31;5024908;28;20063;-62
2021/07/16 03:50:42;;;;;;;3.00;2.78;;;;;;;18.66;68.56;98478.41;5027081;28;20381;-62
2021/07/16 03:53:08;;;;;;;2.95;2.70;;;;;;;18.78;68.48;98473.47;5029247;28;20075;-62
2021/07/16 03:55:33;;;;;;;3.47;2.78;;;;;;;18.84;67.97;98481.75;5031625;28;20029;-62
2021/07/16 03:57:59;;;;;;;3.33;3.13;;;;;;;18.84;68.44;98481.75;5031156;28;20061;-62
2021/07/16 04:00:30;;;;;;;3.00;2.80;;;;;;;18.96;67.58;98475.91;5029514;28;20456;-63
2021/07/16 04:02:57;;;;;;;3.25;2.97;;;;;;;19.05;67.64;98480.56;5027844;28;20029;-62
2021/07/16 04:05:23;;;;;;;3.03;2.72;;;;;;;19.18;67.27;98491.97;5028949;28;20036;-62
2021/07/16 04:07:50;;;;;;;3.67;3.45;;;;;;;19.35;66.59;98490.19;5024335;28;20029;-63
2021/07/16 04:10:23;;;;;;;3.42;3.15;;;;;;;19.41;66.32;98487.22;5029510;28;20100;-63
2021/07/16 04:12:52;;;;;;;2.95;2.75;;;;;;;19.54;65.75;98485.63;5030651;28;20052;-62
2021/07/16 04:15:17;;;;;;;3.20;3.00;;;;;;;19.72;65.43;98494.16;5019753;28;20037;-62
2021/07/16 04:17:42;;;;;;;3.35;3.05;;;;;;;19.80;65.30;98494.53;5028211;28;20421;-62
2021/07/16 04:20:09;;;;;;;7.22;3.10;;;;;;;19.84;64.58;98496.03;5027421;28;20536;-62
2021/07/16 04:22:35;;;;;;;3.05;2.85;;;;;;;19.84;64.47;98502.06;5030119;28;20164;-63
2021/07/16 04:25:02;;;;;;;3.13;2.92;;;;;;;19.94;64.38;98505.78;5026739;28;20111;-62
2021/07/16 04:27:27;;;;;;;3.15;2.85;;;;;;;19.91;64.62;98505.97;5031226;28;20034;-62
2021/07/16 04:29:53;;;;;;;3.78;3.47;;;;;;;19.89;64.50;98504.41;5028705;28;20063;-62
2021/07/16 04:32:18;;;;;;;3.03;2.80;;;;;;;19.82;64.84;98509.13;5027830;28;20044;-62
2021/07/16 04:34:44;;;;;;;2.55;2.45;;;;;;;19.81;64.88;98511.84;5025255;28;20033;-62
2021/07/16 04:37:10;;;;;;;4.05;2.65;;;;;;;19.82;65.00;98509.13;5027354;28;20092;-63
2021/07/16 04:39:36;;;;;;;3.78;3.05;;;;;;;20.01;63.83;98503.69;5025972;28;20030;-62
2021/07/16 04:42:03;;;;;;;3.08;2.78;;;;;;;19.88;64.17;98494.94;5027182;28;20136;-63
2021/07/16 04:44:30;;;;;;;2.60;2.50;;;;;;;20.03;64.01;98487.03;5028149;28;20048;-62
2021/07/16 04:46:56;;;;;;;2.60;2.38;;;;;;;20.16;63.44;98499.31;5027341;28;20033;-63
2021/07/16 04:49:23;;;;;;;2.88;2.67;;;;;;;20.15;63.23;98505.47;5025836;28;20284;-62
2021/07/16 04:51:48;;;;;;;2.85;2.63;;;;;;;20.23;63.07;98501.50;5028731;28;20049;-62
2021/07/16 04:54:16;;;;;;;2.83;2.63;;;;;;;20.43;62.59;98500.31;5028715;28;20033;-62
2021/07/16 04:56:41;;;;;;;2.60;2.45;;;;;;;20.50;62.02;98502.44;5028120;28;20040;-62
2021/07/16 04:59:07;;;;;;;2.47;2.28;;;;;;;20.43;62.13;98506.34;5027389;28;20065;-62
2021/07/16 05:01:32;;;;;;;4.50;2.35;;;;;;;20.64;62.01;98505.97;5030827;28;20060;-62
2021/07/16 05:03:57;;;;;;;2.35;2.22;;;;;;;20.65;61.78;98508.47;5028013;28;20124;-62
2021/07/16 05:06:24;;;;;;;2.90;2.45;;;;;;;20.77;61.55;98502.50;5027406;28;20037;-62
2021/07/16 05:08:50;;;;;;;2.80;2.70;;;;;;;20.78;61.23;98511.16;5027976;28;20087;-62
2021/07/16 05:11:17;;;;;;;2.33;2.22;;;;;;;20.73;61.18;98516.66;5026843;28;20045;-62
2021/07/16 05:13:42;;;;;;;4.97;2.05;;;;;;;20.89;60.87;98519.97;5027011;28;20076;-62
2021/07/16 05:16:09;;;;;;;2.60;2.50;;;;;;;21.10;60.44;98512.56;5025576;28;20108;-62
2021/07/16 05:18:36;;;;;;;5.18;2.38;;;;;;;21.10;60.28;98507.38;5026688;28;20064;-62
2021/07/16 05:21:02;;;;;;;2.78;2.58;;;;;;;21.02;59.80;98506.19;5027649;28;20127;-62
2021/07/16 05:23:28;;;;;;;2.20;2.10;;;;;;;21.06;60.19;98507.66;5025956;28;20045;-61
2021/07/16 05:25:54;;;;;;;2.47;2.35;;;;;;;21.12;59.56;98512.50;5028089;28;20064;-61
2021/07/16 05:28:20;;;;;;;2.15;2.00;;;;;;;21.22;59.59;98503.16;5024651;28;20029;-61
2021/07/16 05:30:47;;;;;;;2.42;2.22;;;;;;;21.28;59.45;98513.22;5023133;28;20034;-61
2021/07/16 05:33:12;;;;;;;4.00;2.33;;;;;;;21.37;59.33;98505.63;5025375;28;20033;-61
2021/07/16 05:35:38;;;;;;;2.13;2.03;;;;;;;21.57;58.65;98521.75;5026422;28;20333;-61
2021/07/16 05:38:04;;;;;;;2.40;2.20;;;;;;;21.49;58.67;98514.44;5031420;28;20123;-63
2021/07/16 05:40:30;;;;;;;2.00;1.90;;;;;;;21.60;58.03;98511.13;5032280;28;20382;-63
2021/07/16 05:42:56;;;;;;;2.20;2.03;;;;;;;21.61;57.55;98515.41;5025429;28;20065;-63
2021/07/16 05:45:22;;;;;;;2.28;2.08;;;;;;;21.47;57.77;98516.31;5029620;28;20028;-63
2021/07/16 05:47:48;;;;;;;2.30;2.17;;;;;;;21.58;57.94;98513.00;5024724;28;20055;-62
2021/07/16 05:50:13;;;;;;;3.10;2.30;;;;;;;21.91;57.42;98522.97;5028715;28;20025;-62
2021/07/16 05:52:39;;;;;;;2.45;2.30;;;;;;;21.88;57.01;98531.88;5022700;28;20091;-62
2021/07/16 05:55:05;;;;;;;2.50;2.30;;;;;;;22.04;56.72;98532.53;5022106;28;20037;-62
2021/07/16 05:57:33;;;;;;;2.08;1.98;;;;;;;22.27;56.17;98529.22;5024871;28;20038;-62
2021/07/16 05:59:58;;;;;;;2.75;1.90;;;;;;;22.24;55.69;98524.19;5030083;28;20033;-62
2021/07/16 06:02:24;;;;;;;2.03;1.92;;;;;;;22.50;55.36;98521.56;5025902;28;20759;-63
2021/07/16 06:04:50;;;;;;;1.95;1.85;;;;;;;22.29;55.54;98527.31;5029988;28;20127;-63
2021/07/16 06:07:15;;;;;;;1.80;1.70;;;;;;;22.43;55.26;98523.78;5023413;28;20038;-62
2021/07/16 06:09:41;;;;;;;1.90;1.80;;;;;;;22.22;55.64;98533.09;5025683;28;20025;-63
2021/07/16 06:12:07;;;;;;;2.80;2.03;;;;;;;22.33;56.00;98531.41;5024028;28;20394;-63
2021/07/16 06:14:32;;;;;;;2.30;2.10;;;;;;;22.43;55.59;98528.16;5024500;28;20423;-63
2021/07/16 06:16:58;;;;;;;2.00;1.90;;;;;;;22.44;55.45;98530.69;5028972;28;20037;-64
2021/07/16 06:19:23;;;;;;;2.42;2.22;;;;;;;22.71;54.68;98520.09;5025633;28;20030;-63
2021/07/16 06:21:49;;;;;;;3.13;1.95;;;;;;;22.68;54.97;98526.38;5029395;28;20052;-63
2021/07/16 06:24:15;;;;;;;2.17;2.00;;;;;;;22.87;53.58;98522.50;5024059;28;20057;-63
2021/07/16 06:26:41;;;;;;;1.90;1.80;;;;;;;22.98;53.79;98526.03;5024675;28;20472;-64
2021/07/16 06:29:07;;;;;;;2.40;2.17;;;;;;;22.72;53.65;98534.84;5025930;28;20120;-65
2021/07/16 06:31:33;;;;;;;2.03;1.92;;;;;;;23.10;53.40;98529.53;5024750;28;20127;-63
2021/07/16 06:33:59;;;;;;;1.90;1.80;;;;;;;23.38;51.90;98534.44;5028010;28;20068;-63
2021/07/16 06:36:24;;;;;;;2.15;1.85;;;;;;;22.93;52.49;98528.13;5027330;28;20163;-62
2021/07/16 06:38:50;;;;;;;1.70;1.60;;;;;;;23.08;52.44;98531.44;5028989;28;20341;-63
2021/07/16 06:41:16;;;;;;;2.10;1.90;;;;;;;23.18;52.22;98530.66;5028369;28;20112;-62
2021/07/16 06:43:41;;;;;;;1.92;1.83;;;;;;;23.23;51.91;98538.19;5026749;28;20026;-63
2021/07/16 06:46:08;;;;;;;2.30;2.05;;;;;;;23.33;51.32;98533.97;5023662;28;20038;-63
2021/07/16 06:48:34;;;;;;;1.92;1.83;;;;;;;23.29;51.41;98529.06;5027293;28;20029;-62
2021/07/16 06:51:00;;;;;;;2.72;2.60;;;;;;;23.64;51.33;98527.34;5030978;28;20282;-63
2021/07/16 06:53:25;;;;;;;2.40;2.30;;;;;;;23.81;50.76;98536.56;5032478;28;20025;-62
2021/07/16 06:55:51;;;;;;;4.10;2.08;;;;;;;23.84;50.19;98533.72;5031662;28;20432;-62
2021/07/16 06:58:16;;;;;;;1.95;1.85;;;;;;;24.12;49.89;98533.31;5025375;28;20037;-64
2021/07/16 07:00:42;;;;;;;2.00;1.83;;;;;;;24.09;50.33;98530.94;5028628;28;20103;-63
2021/07/16 07:03:07;;;;;;;2.15;2.05;;;;;;;24.24;49.67;98531.56;5026499;28;20129;-63
2021/07/16 07:05:34;;;;;;;2.25;2.15;;;;;;;24.40;49.02;98527.66;5034289;28;20298;-63
2021/07/16 07:07:59;;;;;;;2.35;2.25;;;;;;;24.70;48.60;98531.47;5037011;28;20031;-63
2021/07/16 07:10:25;;;;;;;2.15;1.95;;;;;;;24.74;48.87;98527.69;5027750;28;20053;-63
2021/07/16 07:12:50;;;;;;;3.25;2.70;;;;;;;24.92;47.83;98528.88;5033738;28;20021;-63
2021/07/16 07:15:16;;;;;;;2.58;2.47;;;;;;;25.00;47.59;98518.63;5028056;28;20017;-63
2021/07/16 07:17:42;;;;;;;3.15;2.17;;;;;;;25.16;47.25;98526.13;5029893;28;20035;-63
2021/07/16 07:20:09;;;;;;;2.42;2.30;;;;;;;25.33;46.92;98521.16;5027811;28;20033;-63
2021/07/16 07:22:34;;;;;;;2.40;2.20;;;;;;;25.34;47.10;98528.09;5030506;28;20056;-63
2021/07/16 07:25:00;;;;;;;2.28;2.08;;;;;;;25.20;47.02;98528.38;5028246;28;20355;-63
2021/07/16 07:27:25;;;;;;;2.33;2.17;;;;;;;25.19;47.60;98528.50;5028126;28;20397;-64
2021/07/16 07:29:51;;;;;;;2.47;2.28;;;;;;;24.94;47.60;98524.38;5027702;28;20330;-63
2021/07/16 07:32:16;;;;;;;2.10;2.00;;;;;;;25.27;47.27;98520.84;5031948;28;20048;-63
2021/07/16 07:34:42;;;;;;;2.60;2.40;;;;;;;25.06;46.59;98528.63;5027026;28;20072;-63
2021/07/16 07:37:07;;;;;;;2.90;2.80;;;;;;;24.88;47.16;98522.22;5032399;28;20275;-63
2021/07/16 07:39:33;;;;;;;2.17;2.08;;;;;;;24.97;47.17;98545.09;5028343;28;20123;-63
2021/07/16 07:41:59;;;;;;;2.20;2.10;;;;;;;24.90;47.96;98526.41;5030972;28;20083;-63
2021/07/16 07:44:24;;;;;;;2.60;2.40;;;;;;;24.93;47.58;98533.19;5029313;28;20021;-63
2021/07/16 07:46:49;;;;;;;2.45;2.35;;;;;;;25.16;47.25;98519.09;5030074;28;20172;-63
2021/07/16 07:49:15;;;;;;;2.58;2.38;;;;;;;24.92;47.64;98532.34;5027549;28;20079;-63
2021/07/16 07:51:41;;;;;;;2.20;2.10;;;;;;;24.69;48.41;98538.53;5027815;28;20033;-63
2021/07/16 07:54:07;;;;;;;2.80;2.70;;;;;;;24.61;48.75;98538.31;5032504;28;20559;-63
2021/07/16 07:56:33;;;;;;;2.72;2.30;;;;;;;24.45;48.89;98549.13;5029317;28;20026;-63
2021/07/16 07:59:01;;;;;;;2.33;2.22;;;;;;;24.72;49.31;98533.06;5028230;28;20175;-63
2021/07/16 08:01:26;;;;;;;9.38;2.75;;;;;;;24.90;48.12;98541.31;5028359;28;20033;-64
2021/07/16 08:03:52;;;;;;;2.65;2.00;;;;;;;24.89;48.51;98542.25;5030899;28;20040;-63
2021/07/16 08:06:17;;;;;;;2.53;2.03;;;;;;;24.81;48.01;98549.84;5028376;28;20208;-64
2021/07/16 08:08:43;;;;;;;2.67;2.53;;;;;;;25.03;47.84;98544.63;5026921;28;20029;-64
2021/07/16 08:11:09;;;;;;;2.75;2.45;;;;;;;25.14;46.97;98541.97;5028770;28;20029;-63
2021/07/16 08:13:35;;;;;;;2.83;2.28;;;;;;;25.19;47.68;98550.31;5035271;28;20255;-64
2021/07/16 08:16:01;;;;;;;2.20;2.10;;;;;;;25.12;47.16;98548.31;5029736;28;20367;-63
2021/07/16 08:18:28;;;;;;;3.50;2.47;;;;;;;25.18;47.18;98539.94;5025835;28;20071;-64
2021/07/16 08:20:54;;;;;;;2.47;2.38;;;;;;;25.01;47.32;98544.75;5028027;28;20053;-64
2021/07/16 08:23:19;;;;;;;2.17;2.08;;;;;;;24.95;47.90;98549.66;5029867;28;20034;-63
2021/07/16 08:25:45;;;;;;;2.85;2.38;;;;;;;25.09;48.26;98545.91;5025911;28;20033;-63
2021/07/16 08:28:10;;;;;;;3.00;2.80;;;;;;;25.47;47.45;98541.88;5028093;28;20026;-63
2021/07/16 08:30:36;;;;;;;2.70;2.60;;;;;;;25.26;47.42;98540.16;5023404;28;20034;-63
2021/07/16 08:33:02;;;;;;;2.65;1.98;;;;;;;25.09;47.64;98546.75;5030137;28;20397;-63
2021/07/16 08:35:27;;;;;;;3.10;2.90;;;;;;;25.07;47.87;98550.47;5032745;28;20025;-63
2021/07/16 08:37:53;;;;;;;2.53;2.40;;;;;;;25.31;47.73;98549.34;5026330;28;20076;-63
2021/07/16 08:40:18;;;;;;;2.63;2.50;;;;;;;25.33;47.25;98550.03;5026383;28;20342;-63
2021/07/16 08:42:47;;;;;;;1.95;1.85;;;;;;;25.60;46.64;98539.13;5027780;28;20044;-64
2021/07/16 08:45:13;;;;;;;2.75;2.55;;;;;;;25.44;47.14;98550.03;5028011;28;20025;-64
2021/07/16 08:47:38;;;;;;;2.85;2.47;;;;;;;25.76;47.10;98557.09;5033655;28;20041;-63
2021/07/16 08:50:07;;;;;;;3.28;2.38;;;;;;;25.72;45.79;98550.41;5031467;28;20046;-64
2021/07/16 08:52:32;;;;;;;4.28;3.00;;;;;;;25.79;46.38;98557.69;5029032;28;20379;-64
2021/07/16 08:55:00;;;;;;;2.78;2.58;;;;;;;25.92;46.45;98554.88;5026993;28;20135;-63
2021/07/16 08:57:28;;;;;;;3.05;2.90;;;;;;;25.59;45.83;98561.09;5027796;28;20509;-64
2021/07/16 08:59:54;;;;;;;2.88;2.78;;;;;;;26.07;43.84;98555.38;5025761;28;20353;-64
2021/07/16 09:02:22;;;;;;;2.70;2.60;;;;;;;26.38;42.54;98561.56;5025088;28;20040;-64
2021/07/16 09:04:47;;;;;;;2.88;2.78;;;;;;;26.69;42.48;98555.38;5025639;28;20033;-64
2021/07/16 09:07:13;;;;;;;3.00;2.15;;;;;;;26.27;45.32;98555.41;5024483;28;20036;-62
2021/07/16 09:09:40;;;;;;;2.95;2.72;;;;;;;26.51;43.49;98549.88;5035002;28;20037;-63
2021/07/16 09:12:11;;;;;;;3.22;2.90;;;;;;;26.63;42.70;98559.34;5025353;28;20441;-63
2021/07/16 09:14:37;;;;;;;2.47;2.38;;;;;;;26.92;41.26;98548.97;5026093;28;20117;-63
2021/07/16 09:17:10;;;;;;;2.88;2.78;;;;;;;27.04;41.80;98550.53;5028364;28;20507;-63
2021/07/16 09:19:41;;;;;;;2.95;2.75;;;;;;;26.96;41.88;98547.75;5025746;28;20082;-63
2021/07/16 09:22:25;;;;;;;3.00;2.80;;;;;;;27.06;41.54;98548.63;5026359;28;20399;-64
2021/07/16 09:24:53;;;;;;;3.05;2.80;;;;;;;27.46;41.76;98539.78;5028663;28;20029;-63
2021/07/16 09:27:35;;;;;;;3.55;3.35;;;;;;;27.51;40.65;98537.63;5025493;28;20037;-64
2021/07/16 09:30:14;;;;;;;3.30;3.00;;;;;;;27.43;40.72;98542.72;5023859;28;20033;-63
2021/07/16 09:32:52;;;;;;;3.20;3.00;;;;;;;27.56;40.67;98543.31;5025321;28;20065;-64
2021/07/16 09:35:19;;;;;;;3.67;3.47;;;;;;;27.75;41.01;98539.88;5030467;28;20148;-64
2021/07/16 09:37:54;;;;;;;3.28;3.08;;;;;;;27.27;41.44;98535.34;5022703;28;20105;-62
2021/07/16 09:40:25;;;;;;;3.47;3.28;;;;;;;27.44;41.18;98525.94;5025693;28;20044;-63
2021/07/16 09:43:03;;;;;;;2.97;2.78;;;;;;;27.42;40.67;98523.44;5023649;28;20029;-63
2021/07/16 09:45:29;;;;;;;3.80;3.20;;;;;;;27.46;40.43;98521.34;5024593;28;20030;-63
2021/07/16 09:47:55;;;;;;;3.20;3.03;;;;;;;27.20;41.07;98507.91;5026500;28;20107;-63
2021/07/16 09:50:24;;;;;;;5.43;3.05;;;;;;;27.39;40.36;98505.28;5027609;28;20021;-63
2021/07/16 09:53:29;;;;;;;3.30;3.10;;;;;;;27.40;39.51;98503.50;5032912;28;20030;-63
2021/07/16 09:56:11;;;;;;;;;;;;;;;27.50;39.02;98505.19;5030614;28;20405;-63
2021/07/16 09:58:37;;;;;;;2.83;2.72;;;;;;;27.77;38.79;98509.75;5022972;28;19917;-63
2021/07/16 10:01:02;;;;;;;2.97;2.88;;;;;;;27.75;38.96;98509.09;5025845;28;20039;-63
2021/07/16 10:03:28;;;;;;;3.08;2.88;;;;;;;27.96;37.86;98511.56;5027729;28;20049;-64
2021/07/16 10:05:57;;;;;;;3.20;3.00;;;;;;;27.75;38.70;98506.44;5029483;28;20041;-64
2021/07/16 10:08:23;;;;;;;3.03;2.83;;;;;;;27.87;38.80;98510.59;5025512;28;20026;-63
2021/07/16 10:10:49;;;;;;;3.22;3.13;;;;;;;27.79;38.77;98510.47;5028011;28;20030;-64
2021/07/16 10:13:16;;;;;;;3.25;3.05;;;;;;;28.04;38.60;98509.88;5027244;28;20072;-64
2021/07/16 10:15:43;;;;;;;5.13;2.65;;;;;;;27.70;38.57;98514.75;5027222;28;20070;-64
2021/07/16 10:18:09;;;;;;;2.70;2.60;;;;;;;27.76;39.25;98512.53;5023590;28;20026;-64
2021/07/16 10:20:36;;;;;;;2.83;2.72;;;;;;;27.99;38.33;98509.47;5028063;28;20429;-64
2021/07/16 10:23:03;;;;;;;2.80;2.63;;;;;;;28.05;38.12;98510.72;5030648;28;20025;-64
2021/07/16 10:25:29;;;;;;;2.92;2.83;;;;;;;27.94;38.48;98508.22;5032631;28;20041;-64
2021/07/16 10:27:54;;;;;;;3.70;3.38;;;;;;;28.11;37.97;98515.44;5030477;28;20038;-64
2021/07/16 10:30:20;;;;;;;3.30;3.10;;;;;;;28.09;37.85;98507.66;5028978;28;20033;-64
2021/07/16 10:32:46;;;;;;;2.97;2.85;;;;;;;28.31;37.22;98511.75;5011153;28;20092;-64
2021/07/16 10:35:23;;;;;;;2.95;2.85;;;;;;;28.44;36.91;98506.16;5032395;28;20229;-64
2021/07/16 10:37:51;;;;;;;3.75;3.45;;;;;;;28.32;37.58;98517.88;5032594;28;21406;-63
2021/07/16 10:40:43;;;;;;;2.72;2.63;;;;;;;28.49;36.97;98499.50;5027564;28;20024;-63
2021/07/16 10:43:29;;;;;;;2.95;2.70;;;;;;;28.53;36.62;98500.03;5032148;28;20124;-63
2021/07/16 10:45:56;;;;;;;3.35;3.17;;;;;;;28.48;35.97;98510.19;5019964;28;20065;-62
2021/07/16 10:48:31;;;;;;;3.60;3.40;;;;;;;28.66;35.51;98505.81;5027394;28;20528;-63
2021/07/16 10:50:56;;;;;;;;;;;;;;;28.70;36.13;98504.56;5035093;28;20032;-63
2021/07/16 10:53:28;;;;;;;2.55;2.35;;;;;;;28.52;34.73;98498.34;5029393;28;19917;-62
2021/07/16 10:55:56;;;;;;;3.38;3.08;;;;;;;28.63;35.75;98503.47;5033061;28;20393;-64
2021/07/16 10:58:23;;;;;;;2.45;2.35;;;;;;;28.69;34.60;98513.44;5032228;28;20043;-62
2021/07/16 11:00:55;;;;;;;2.97;2.78;;;;;;;28.73;33.54;98512.19;5027972;28;20069;-63
2021/07/16 11:03:40;;;;;;;2.30;2.20;;;;;;;28.88;33.08;98509.91;5028787;28;20025;-63
2021/07/16 11:06:10;;;;;;;2.17;2.08;;;;;;;28.55;32.60;98506.84;5029241;28;20355;-63
2021/07/16 11:08:42;;;;;;;3.35;3.15;;;;;;;28.80;32.70;98504.53;5027460;28;20043;-63
2021/07/16 11:11:08;;;;;;;3.08;2.88;;;;;;;28.69;33.43;98516.06;5026274;28;20053;-63
2021/07/16 11:13:39;;;;;;;3.17;2.88;;;;;;;28.85;32.78;98508.41;5031726;28;20025;-60
2021/07/16 11:16:24;;;;;;;2.30;2.20;;;;;;;28.40;33.23;98494.25;5031818;28;20048;-63
2021/07/16 11:18:52;;;;;;;;;;;;;;;28.84;33.15;98501.44;5029210;28;20034;-63
2021/07/16 11:21:39;;;;;;;2.50;2.40;;;;;;;28.08;34.10;98499.88;5032813;28;20008;-63
2021/07/16 11:24:05;;;;;;;3.10;2.90;;;;;;;28.28;35.29;98490.13;5030354;28;20022;-63
2021/07/16 11:26:50;;;;;;;3.30;3.00;;;;;;;28.24;35.46;98499.28;5028676;28;20310;-63
2021/07/16 11:29:17;;;;;;;3.00;2.90;;;;;;;28.21;34.88;98500.44;5026472;28;20032;-63
2021/07/16 11:31:43;;;;;;;3.30;3.10;;;;;;;28.07;33.87;98501.66;5026930;28;20036;-63
2021/07/16 11:34:15;;;;;;;2.63;2.47;;;;;;;28.10;33.93;98500.56;5031663;28;20041;-64